sensor_id;sensor_type;location;lat;lon;timestamp;temperature;humidity
26613;DHT22;14248;57.652;11.908;2023-06-26T05:38:24;21.30;95.10
26613;DHT22;14248;57.652;11.908;2023-06-26T05:40:50;19.10;99.90
26613;DHT22;14248;57.652;11.908;2023-06-26T05:43:17;19.10;99.90
26613;DHT22;14248;57.652;11.908;2023-06-26T05:45:47;19.10;99.90
26613;DHT22;14248;57.652;11.908;2023-06-26T05:50:40;19.20;99.90
26613;DHT22;14248;57.652;11.908;2023-06-26T05:53:08;19.30;99.90
26613;DHT22;14248;57.652;11.908;2023-06-26T05:55:34;19.50;99.90
26613;DHT22;14248;57.652;11.908;2023-06-26T05:57:59;19.50;99.90
26613;DHT22;14248;57.652;11.908;2023-06-26T06:00:27;19.60;99.90
26613;DHT22;14248;57.652;11.908;2023-06-26T06:02:55;19.70;99.90
26613;DHT22;14248;57.652;11.908;2023-06-26T07:10:09;19.70;99.90
26613;DHT22;14248;57.652;11.908;2023-06-26T07:12:38;22.10;99.90
26613;DHT22;14248;57.652;11.908;2023-06-26T07:15:06;22.10;99.90
26613;DHT22;14248;57.652;11.908;2023-06-26T07:17:32;22.20;99.90
26613;DHT22;14248;57.652;11.908;2023-06-26T07:20:02;22.30;99.90
26613;DHT22;14248;57.652;11.908;2023-06-26T07:22:34;22.40;99.90
26613;DHT22;14248;57.652;11.908;2023-06-26T07:29:57;22.50;99.90
26613;DHT22;14248;57.652;11.908;2023-06-26T07:32:28;22.70;99.90
26613;DHT22;14248;57.652;11.908;2023-06-26T07:34:54;22.70;99.90
26613;DHT22;14248;57.652;11.908;2023-06-26T07:37:20;22.70;99.90
26613;DHT22;14248;57.652;11.908;2023-06-26T10:01:23;22.70;99.90
26613;DHT22;14248;57.652;11.908;2023-06-26T10:03:49;26.90;93.10
26613;DHT22;14248;57.652;11.908;2023-06-26T10:06:34;27.00;92.90
26613;DHT22;14248;57.652;11.908;2023-06-26T10:09:03;27.30;92.70
26613;DHT22;14248;57.652;11.908;2023-06-26T10:14:15;27.70;91.60
26613;DHT22;14248;57.652;11.908;2023-06-26T10:16:43;27.70;91.30
26613;DHT22;14248;57.652;11.908;2023-06-26T10:19:12;27.70;90.90
26613;DHT22;14248;57.652;11.908;2023-06-26T10:21:40;27.80;90.20
26613;DHT22;14248;57.652;11.908;2023-06-26T10:33:59;27.90;90.10
26613;DHT22;14248;57.652;11.908;2023-06-26T10:36:31;28.90;83.10
26613;DHT22;14248;57.652;11.908;2023-06-26T10:39:03;29.10;82.50
26613;DHT22;14248;57.652;11.908;2023-06-26T10:41:36;29.20;82.60
26613;DHT22;14248;57.652;11.908;2023-06-26T10:44:06;29.30;82.20
26613;DHT22;14248;57.652;11.908;2023-06-26T10:46:55;29.20;81.60
26613;DHT22;14248;57.652;11.908;2023-06-26T10:49:36;29.00;81.40
26613;DHT22;14248;57.652;11.908;2023-06-26T11:02:05;28.80;81.40
26613;DHT22;14248;57.652;11.908;2023-06-26T11:04:47;28.80;76.30
26613;DHT22;14248;57.652;11.908;2023-06-26T11:07:22;28.80;76.00
26613;DHT22;14248;57.652;11.908;2023-06-26T11:10:08;28.80;74.60
26613;DHT22;14248;57.652;11.908;2023-06-26T11:12:41;28.90;73.20
26613;DHT22;14248;57.652;11.908;2023-06-26T11:15:09;29.00;70.20
26613;DHT22;14248;57.652;11.908;2023-06-26T11:17:37;29.00;69.30
26613;DHT22;14248;57.652;11.908;2023-06-26T11:20:08;29.10;69.00
26613;DHT22;14248;57.652;11.908;2023-06-26T11:22:37;29.10;67.50
26613;DHT22;14248;57.652;11.908;2023-06-26T11:25:10;29.00;67.40
26613;DHT22;14248;57.652;11.908;2023-06-26T11:27:40;29.00;67.60
26613;DHT22;14248;57.652;11.908;2023-06-26T11:30:11;29.00;67.50
26613;DHT22;14248;57.652;11.908;2023-06-26T11:32:41;29.20;66.40
26613;DHT22;14248;57.652;11.908;2023-06-26T11:35:07;29.30;66.00
26613;DHT22;14248;57.652;11.908;2023-06-26T11:37:35;29.30;66.60
26613;DHT22;14248;57.652;11.908;2023-06-26T11:40:16;29.40;66.80
26613;DHT22;14248;57.652;11.908;2023-06-26T11:42:44;29.60;67.40
26613;DHT22;14248;57.652;11.908;2023-06-26T11:45:14;29.90;66.60
26613;DHT22;14248;57.652;11.908;2023-06-26T11:47:41;30.00;66.10
26613;DHT22;14248;57.652;11.908;2023-06-26T11:50:14;30.20;66.40
26613;DHT22;14248;57.652;11.908;2023-06-26T11:52:53;30.30;66.60
26613;DHT22;14248;57.652;11.908;2023-06-26T11:55:20;30.50;65.80
26613;DHT22;14248;57.652;11.908;2023-06-26T11:57:56;30.50;65.30
26613;DHT22;14248;57.652;11.908;2023-06-26T12:00:24;30.50;65.60
26613;DHT22;14248;57.652;11.908;2023-06-26T12:02:50;30.60;66.10
26613;DHT22;14248;57.652;11.908;2023-06-26T12:05:17;30.60;65.20
26613;DHT22;14248;57.652;11.908;2023-06-26T12:07:44;30.60;65.50
26613;DHT22;14248;57.652;11.908;2023-06-26T12:10:18;30.60;66.60
26613;DHT22;14248;57.652;11.908;2023-06-26T12:12:50;30.70;65.90
26613;DHT22;14248;57.652;11.908;2023-06-26T12:15:17;30.70;66.80
26613;DHT22;14248;57.652;11.908;2023-06-26T12:17:43;30.70;67.40
26613;DHT22;14248;57.652;11.908;2023-06-26T12:20:21;30.60;65.70
26613;DHT22;14248;57.652;11.908;2023-06-26T12:22:48;30.30;66.10
26613;DHT22;14248;57.652;11.908;2023-06-26T12:25:23;30.10;67.20
26613;DHT22;14248;57.652;11.908;2023-06-26T12:28:15;29.80;68.20
26613;DHT22;14248;57.652;11.908;2023-06-26T12:30:46;29.50;69.00
26613;DHT22;14248;57.652;11.908;2023-06-26T12:33:15;29.30;69.40
26613;DHT22;14248;57.652;11.908;2023-06-26T12:35:47;29.10;69.80
26613;DHT22;14248;57.652;11.908;2023-06-26T12:38:14;29.10;70.30
26613;DHT22;14248;57.652;11.908;2023-06-26T12:40:48;29.10;70.10
26613;DHT22;14248;57.652;11.908;2023-06-26T12:43:22;29.00;70.10
26613;DHT22;14248;57.652;11.908;2023-06-26T12:55:39;29.00;70.20
26613;DHT22;14248;57.652;11.908;2023-06-26T12:58:05;29.40;67.70
26613;DHT22;14248;57.652;11.908;2023-06-26T13:00:30;29.50;67.30
26613;DHT22;14248;57.652;11.908;2023-06-26T13:02:57;29.70;67.50
26613;DHT22;14248;57.652;11.908;2023-06-26T13:05:24;29.90;67.30
26613;DHT22;14248;57.652;11.908;2023-06-26T13:07:49;30.00;67.50
26613;DHT22;14248;57.652;11.908;2023-06-26T13:10:16;30.30;67.10
26613;DHT22;14248;57.652;11.908;2023-06-26T13:12:43;30.50;66.90
26613;DHT22;14248;57.652;11.908;2023-06-26T13:15:09;30.70;66.60
26613;DHT22;14248;57.652;11.908;2023-06-26T13:17:35;30.80;66.70
26613;DHT22;14248;57.652;11.908;2023-06-26T13:20:01;30.90;66.40
26613;DHT22;14248;57.652;11.908;2023-06-26T13:22:26;31.00;65.70
26613;DHT22;14248;57.652;11.908;2023-06-26T13:24:52;30.90;65.90
26613;DHT22;14248;57.652;11.908;2023-06-26T13:27:18;30.80;65.70
26613;DHT22;14248;57.652;11.908;2023-06-26T13:29:45;30.70;65.40
26613;DHT22;14248;57.652;11.908;2023-06-26T13:32:13;30.60;65.70
26613;DHT22;14248;57.652;11.908;2023-06-26T13:34:38;30.40;65.90
26613;DHT22;14248;57.652;11.908;2023-06-26T13:37:04;30.20;66.00
26613;DHT22;14248;57.652;11.908;2023-06-26T13:39:30;30.00;66.40
26613;DHT22;14248;57.652;11.908;2023-06-26T13:41:55;29.80;66.60
26613;DHT22;14248;57.652;11.908;2023-06-26T13:44:22;29.60;66.90
26613;DHT22;14248;57.652;11.908;2023-06-26T13:46:50;29.30;68.30
26613;DHT22;14248;57.652;11.908;2023-06-26T16:52:52;28.80;74.30
26613;DHT22;14248;57.652;11.908;2023-06-26T16:57:44;22.60;99.90
26613;DHT22;14248;57.652;11.908;2023-06-26T17:05:02;24.20;99.90
26613;DHT22;14248;57.652;11.908;2023-06-26T17:07:28;26.20;99.90
26613;DHT22;14248;57.652;11.908;2023-06-26T17:09:55;26.90;99.90
26613;DHT22;14248;57.652;11.908;2023-06-26T17:12:20;27.20;99.90
26613;DHT22;14248;57.652;11.908;2023-06-26T17:14:46;27.10;99.90
26613;DHT22;14248;57.652;11.908;2023-06-26T17:17:12;26.80;99.90
26613;DHT22;14248;57.652;11.908;2023-06-26T17:19:41;26.50;99.90
26613;DHT22;14248;57.652;11.908;2023-06-26T17:22:06;26.10;99.90
26613;DHT22;14248;57.652;11.908;2023-06-26T17:24:32;25.60;99.90
26613;DHT22;14248;57.652;11.908;2023-06-26T17:51:40;25.30;99.90
